Time;durP1;ratioP1;P1;durP2;ratioP2;P2;SDS_P1;SDS_P2;PMS_P1;PMS_P2;Temp;Humidity;BMP_temperature;BMP_pressure;BME280_temperature;BME280_humidity;BME280_pressure;Samples;Min_cycle;Max_cycle;Signal;HPM_P1;HPM_P2
2021/10/08 00:01:03;;;;;;;12.30;7.32;;;;;;;12.36;100.00;99025.03;4971075;28;20038;-78
2021/10/08 00:03:31;;;;;;;12.98;7.25;;;;;;;12.45;100.00;99034.94;4985572;22;20042;-82
2021/10/08 00:05:57;;;;;;;14.38;7.22;;;;;;;12.50;100.00;99021.28;4938069;28;20411;-82
2021/10/08 00:08:24;;;;;;;14.88;7.20;;;;;;;12.47;100.00;99029.19;4938846;28;20042;-82
2021/10/08 00:10:51;;;;;;;13.15;7.10;;;;;;;12.48;100.00;99028.09;4942226;28;20271;-82
2021/10/08 00:13:17;;;;;;;13.18;7.28;;;;;;;12.48;100.00;99023.50;4977455;28;20046;-83
2021/10/08 00:15:44;;;;;;;13.57;7.97;;;;;;;12.36;100.00;99011.44;4966451;28;20042;-84
2021/10/08 00:18:11;;;;;;;14.10;7.57;;;;;;;12.41;100.00;99016.81;4971833;28;20234;-84
2021/10/08 00:20:37;;;;;;;15.35;7.70;;;;;;;12.38;100.00;99020.09;4953886;28;20118;-83
2021/10/08 00:23:04;;;;;;;12.40;7.40;;;;;;;12.37;100.00;99010.31;4952497;28;20098;-82
2021/10/08 00:25:39;;;;;;;13.30;7.38;;;;;;;12.27;100.00;99010.47;4938771;28;20051;-84
2021/10/08 00:28:07;;;;;;;17.83;8.18;;;;;;;12.28;100.00;99010.19;4942189;28;20047;-81
2021/10/08 00:30:34;;;;;;;13.10;7.82;;;;;;;12.36;100.00;99019.59;4939054;28;20081;-82
2021/10/08 00:33:02;;;;;;;13.07;7.10;;;;;;;12.37;100.00;99018.47;4974312;28;20176;-82
2021/10/08 00:35:31;;;;;;;14.15;7.43;;;;;;;12.27;100.00;99021.31;4940128;28;20047;-83
2021/10/08 00:38:03;;;;;;;12.73;7.65;;;;;;;12.32;100.00;99004.97;4954976;28;20144;-82
2021/10/08 00:40:40;;;;;;;14.98;7.65;;;;;;;12.39;100.00;99018.97;4957813;28;20472;-83
2021/10/08 00:43:21;;;;;;;14.75;8.25;;;;;;;12.30;100.00;99010.69;4946221;28;20050;-82
2021/10/08 00:45:48;;;;;;;12.52;7.35;;;;;;;12.37;100.00;99011.13;4961465;28;20074;-81
2021/10/08 00:48:16;;;;;;;11.02;8.10;;;;;;;12.29;100.00;99000.94;4941810;28;20047;-82
2021/10/08 00:50:49;;;;;;;16.77;9.07;;;;;;;12.17;100.00;99011.41;4957354;28;20073;-80
2021/10/08 00:53:18;;;;;;;18.88;9.02;;;;;;;12.30;100.00;99024.28;4975705;28;20109;-83
2021/10/08 00:55:51;;;;;;;12.88;8.40;;;;;;;12.34;100.00;99022.59;4981361;28;20512;-82
2021/10/08 00:58:21;;;;;;;14.80;8.73;;;;;;;12.38;100.00;99020.91;4948679;28;20047;-82
2021/10/08 01:00:50;;;;;;;16.52;8.77;;;;;;;12.31;100.00;99015.00;4944387;28;20119;-82
2021/10/08 01:03:20;;;;;;;12.25;7.70;;;;;;;12.40;100.00;99010.56;4972506;28;20117;-82
2021/10/08 01:05:47;;;;;;;19.77;8.60;;;;;;;12.26;100.00;99004.22;4954881;28;20512;-80
2021/10/08 01:08:15;;;;;;;15.43;8.25;;;;;;;12.24;100.00;99002.91;4955572;28;20043;-82
2021/10/08 01:10:43;;;;;;;14.82;8.77;;;;;;;12.32;100.00;99008.50;4971852;28;20093;-80
2021/10/08 01:13:11;;;;;;;15.18;8.88;;;;;;;12.45;100.00;99010.50;4939967;28;20046;-82
2021/10/08 01:15:39;;;;;;;13.80;8.48;;;;;;;12.48;100.00;99011.81;4956081;28;20364;-82
2021/10/08 01:18:06;;;;;;;15.88;8.77;;;;;;;12.44;100.00;99016.19;4964367;28;20143;-83
2021/10/08 01:20:34;;;;;;;17.45;8.55;;;;;;;12.46;100.00;99003.16;4949560;28;20078;-83
2021/10/08 01:23:01;;;;;;;13.70;8.75;;;;;;;12.56;100.00;99013.06;4942263;28;20062;-82
2021/10/08 01:25:31;;;;;;;18.13;8.65;;;;;;;12.52;100.00;99008.22;4955022;28;20409;-82
2021/10/08 01:27:58;;;;;;;14.48;8.85;;;;;;;12.53;100.00;99014.44;4955213;28;20538;-83
2021/10/08 01:30:26;;;;;;;15.15;8.65;;;;;;;12.42;100.00;99002.91;4940645;28;20097;-82
2021/10/08 01:32:54;;;;;;;15.15;8.32;;;;;;;12.39;100.00;99005.41;4956573;28;20503;-81
2021/10/08 01:35:21;;;;;;;14.15;9.20;;;;;;;12.42;100.00;98999.38;4955712;28;20043;-83
2021/10/08 01:37:48;;;;;;;13.98;8.75;;;;;;;12.57;100.00;99010.03;4955737;28;20047;-81
2021/10/08 01:40:15;;;;;;;14.02;8.93;;;;;;;12.54;100.00;99007.94;4955277;28;20411;-82
2021/10/08 01:42:42;;;;;;;13.50;8.23;;;;;;;12.59;100.00;99007.84;4955881;28;20101;-82
2021/10/08 01:45:12;;;;;;;18.58;9.55;;;;;;;12.66;100.00;99008.28;4956508;28;20106;-81
2021/10/08 01:47:38;;;;;;;14.65;10.00;;;;;;;12.68;100.00;99014.22;4937572;28;20061;-82
2021/10/08 01:50:06;;;;;;;18.35;10.00;;;;;;;12.74;100.00;99006.81;4955813;28;20043;-82
2021/10/08 01:52:33;;;;;;;17.60;10.40;;;;;;;12.83;100.00;99010.47;4955428;28;20054;-82
2021/10/08 01:55:00;;;;;;;24.10;10.25;;;;;;;12.80;100.00;98997.50;4939465;28;20043;-82
2021/10/08 01:57:27;;;;;;;24.85;10.93;;;;;;;12.74;100.00;98996.75;4972354;28;20126;-81
2021/10/08 01:59:53;;;;;;;23.13;12.20;;;;;;;12.81;100.00;98999.91;4964476;28;20050;-81
2021/10/08 02:02:20;;;;;;;31.65;12.43;;;;;;;12.70;100.00;98998.44;4941458;28;20047;-81
2021/10/08 02:04:47;;;;;;;27.20;12.38;;;;;;;12.72;100.00;99003.59;4942901;28;20073;-82
2021/10/08 02:07:14;;;;;;;17.27;11.10;;;;;;;12.74;100.00;98991.31;4975671;28;20043;-82
2021/10/08 02:09:41;;;;;;;18.02;11.15;;;;;;;12.69;100.00;98993.31;4941100;28;20047;-82
2021/10/08 02:12:09;;;;;;;18.63;11.05;;;;;;;12.73;100.00;98991.59;4956837;28;20527;-80
2021/10/08 02:14:36;;;;;;;24.20;11.75;;;;;;;12.75;100.00;98978.53;4940568;28;20114;-82
2021/10/08 02:17:03;;;;;;;20.15;11.57;;;;;;;12.71;100.00;98978.31;4957444;28;20065;-82
2021/10/08 02:19:30;;;;;;;18.73;11.82;;;;;;;12.60;100.00;98987.72;4957932;28;20051;-82
2021/10/08 02:21:57;;;;;;;24.75;12.00;;;;;;;12.67;100.00;98995.50;4957624;28;20039;-80
2021/10/08 02:24:24;;;;;;;30.20;13.15;;;;;;;12.67;100.00;98985.44;4956667;28;20116;-81
2021/10/08 02:26:51;;;;;;;23.70;13.18;;;;;;;12.68;100.00;98994.38;4975048;28;20051;-81
2021/10/08 02:29:17;;;;;;;23.45;12.43;;;;;;;12.57;100.00;98996.44;4941513;28;20170;-81
2021/10/08 02:31:44;;;;;;;21.73;12.15;;;;;;;12.52;100.00;98993.03;4940849;28;20154;-82
2021/10/08 02:34:11;;;;;;;21.83;12.65;;;;;;;12.55;100.00;98997.84;4941094;28;20558;-81
2021/10/08 02:36:38;;;;;;;19.80;12.65;;;;;;;12.54;100.00;98991.63;4941100;28;20074;-82
2021/10/08 02:39:04;;;;;;;21.90;13.25;;;;;;;12.57;100.00;98988.31;4941302;28;20111;-82
2021/10/08 02:41:32;;;;;;;26.02;13.43;;;;;;;12.54;100.00;98988.91;4958363;28;20711;-81
2021/10/08 02:43:58;;;;;;;20.73;12.95;;;;;;;12.52;100.00;98993.03;4955789;28;20078;-82
2021/10/08 02:46:25;;;;;;;22.13;12.18;;;;;;;12.63;100.00;98998.00;4957816;28;20217;-81
2021/10/08 02:48:52;;;;;;;26.48;15.00;;;;;;;12.65;100.00;98997.69;4956635;28;20565;-82
2021/10/08 02:51:19;;;;;;;28.35;15.68;;;;;;;12.73;100.00;99005.19;4939926;28;20229;-80
2021/10/08 02:53:45;;;;;;;28.23;14.55;;;;;;;12.69;100.00;99015.03;4955161;28;20102;-82
2021/10/08 02:56:12;;;;;;;30.48;14.90;;;;;;;12.72;100.00;99011.75;4940440;28;20305;-80
2021/10/08 02:58:39;;;;;;;25.45;14.30;;;;;;;12.70;100.00;99000.38;4940155;28;20055;-81
2021/10/08 03:01:06;;;;;;;26.38;14.38;;;;;;;12.71;100.00;99013.63;4941499;28;20345;-81
2021/10/08 03:03:33;;;;;;;27.98;14.55;;;;;;;12.76;100.00;99007.31;4956598;28;20077;-82
2021/10/08 03:05:59;;;;;;;28.17;14.85;;;;;;;12.66;100.00;99015.63;4956442;28;20046;-81
2021/10/08 03:08:26;;;;;;;30.67;15.90;;;;;;;12.68;100.00;99010.69;4956326;28;20084;-80
2021/10/08 03:10:53;;;;;;;28.95;14.30;;;;;;;12.62;100.00;99015.38;4954299;28;20069;-82
2021/10/08 03:13:19;;;;;;;27.88;15.18;;;;;;;12.56;100.00;99013.06;4954507;28;20050;-81
2021/10/08 03:15:46;;;;;;;24.55;14.57;;;;;;;12.68;100.00;99018.84;4954092;28;20054;-81
2021/10/08 03:18:13;;;;;;;28.92;15.57;;;;;;;12.63;100.00;99011.59;4937693;28;20240;-83
2021/10/08 03:20:40;;;;;;;24.13;14.77;;;;;;;12.66;100.00;99007.47;4953413;28;20068;-82
2021/10/08 03:23:07;;;;;;;30.35;16.10;;;;;;;12.76;100.00;99012.75;4951666;28;20046;-81
2021/10/08 03:25:34;;;;;;;24.35;15.93;;;;;;;12.74;100.00;99014.97;4936534;28;20066;-80
2021/10/08 03:28:01;;;;;;;29.77;15.75;;;;;;;12.75;100.00;99014.66;4931807;29;20061;-79
2021/10/08 03:30:30;;;;;;;23.98;15.88;;;;;;;12.77;100.00;99017.09;4929238;28;20047;-80
2021/10/08 03:32:56;;;;;;;25.58;16.52;;;;;;;12.75;100.00;99022.03;4935516;28;20117;-79
2021/10/08 03:35:23;;;;;;;29.08;15.80;;;;;;;12.80;100.00;99014.56;4935161;28;20047;-81
2021/10/08 03:37:53;;;;;;;29.58;17.02;;;;;;;12.73;100.00;99021.50;4934881;28;20145;-81
2021/10/08 03:40:26;;;;;;;28.95;15.48;;;;;;;12.69;100.00;99013.13;4951985;28;20066;-79
2021/10/08 03:42:54;;;;;;;29.15;17.08;;;;;;;12.64;100.00;99021.38;4952473;28;20486;-82
2021/10/08 03:45:20;;;;;;;27.67;16.20;;;;;;;12.65;100.00;99016.72;4955704;28;20047;-82
2021/10/08 03:47:57;;;;;;;26.85;16.17;;;;;;;12.64;100.00;99026.00;4940997;28;20177;-81
2021/10/08 03:50:24;;;;;;;28.45;17.13;;;;;;;12.53;100.00;99030.75;4952341;28;20058;-83
2021/10/08 03:52:51;;;;;;;34.50;17.25;;;;;;;12.54;100.00;99026.94;4972300;28;20049;-83
2021/10/08 03:55:17;;;;;;;27.50;16.33;;;;;;;12.62;100.00;99023.53;4964861;28;20149;-80
2021/10/08 03:57:44;;;;;;;27.35;16.08;;;;;;;12.62;100.00;99026.25;4936479;28;20057;-80
2021/10/08 04:00:12;;;;;;;28.05;16.80;;;;;;;12.68;100.00;99025.09;4935661;28;20043;-80
2021/10/08 04:02:38;;;;;;;28.17;17.30;;;;;;;12.70;100.00;99022.88;4953220;28;20228;-83
2021/10/08 04:05:05;;;;;;;29.05;17.70;;;;;;;12.67;100.00;99017.25;4940266;28;20101;-83
2021/10/08 04:07:32;;;;;;;35.28;19.13;;;;;;;12.54;100.00;99010.66;4973151;28;20046;-81
2021/10/08 04:09:59;;;;;;;36.75;20.67;;;;;;;12.52;100.00;99027.22;4955822;28;20416;-82
2021/10/08 04:12:26;;;;;;;37.92;21.75;;;;;;;12.54;100.00;99026.13;4971871;28;20365;-83
2021/10/08 04:14:53;;;;;;;35.85;21.30;;;;;;;12.45;100.00;99026.78;4937686;28;20275;-82
2021/10/08 04:17:19;;;;;;;42.75;21.75;;;;;;;12.71;100.00;99031.84;4961119;28;20383;-82
2021/10/08 04:19:46;;;;;;;41.55;22.08;;;;;;;12.64;100.00;99031.41;4989281;28;20471;-80
2021/10/08 04:22:13;;;;;;;36.08;21.00;;;;;;;12.71;100.00;99024.50;4957446;28;20066;-79
2021/10/08 04:24:39;;;;;;;40.88;21.65;;;;;;;12.74;100.00;99040.22;4958325;28;20050;-81
2021/10/08 04:27:06;;;;;;;43.30;23.48;;;;;;;12.69;100.00;99034.06;4957320;28;20058;-81
2021/10/08 04:29:33;;;;;;;43.10;23.05;;;;;;;12.73;100.00;99038.59;4958580;28;20438;-82
2021/10/08 04:31:59;;;;;;;47.83;25.25;;;;;;;12.49;100.00;99035.94;4952424;28;20531;-83
2021/10/08 04:34:26;;;;;;;48.22;26.25;;;;;;;12.72;100.00;99038.91;4956933;28;20039;-82
2021/10/08 04:36:53;;;;;;;50.17;26.42;;;;;;;12.68;100.00;99041.41;4940011;28;20098;-82
2021/10/08 04:39:20;;;;;;;51.70;26.92;;;;;;;12.70;100.00;99050.06;4956476;28;20257;-81
2021/10/08 04:41:47;;;;;;;50.55;27.73;;;;;;;12.78;100.00;99041.25;4942248;28;20470;-79
2021/10/08 04:44:14;;;;;;;51.97;28.05;;;;;;;12.74;100.00;99042.94;4971210;28;20066;-83
2021/10/08 04:46:42;;;;;;;56.15;29.27;;;;;;;12.83;100.00;99048.50;4988408;28;20408;-82
2021/10/08 04:49:09;;;;;;;56.05;29.50;;;;;;;12.67;100.00;99041.72;4941266;28;20046;-83
2021/10/08 04:51:35;;;;;;;58.30;30.48;;;;;;;12.67;100.00;99055.28;4941570;28;20437;-81
2021/10/08 04:54:03;;;;;;;57.38;31.20;;;;;;;12.70;100.00;99046.56;4972780;28;20158;-83
2021/10/08 04:56:33;;;;;;;56.38;30.17;;;;;;;12.80;100.00;99057.28;4957711;28;20046;-83
2021/10/08 04:59:00;;;;;;;59.00;32.10;;;;;;;12.68;100.00;99049.56;4941483;28;20089;-83
2021/10/08 05:01:28;;;;;;;58.17;30.75;;;;;;;12.68;100.00;99054.16;4955855;28;20430;-81
2021/10/08 05:03:56;;;;;;;64.65;29.73;;;;;;;12.77;100.00;99053.25;4955770;28;20051;-84
2021/10/08 05:06:22;;;;;;;57.17;31.50;;;;;;;12.56;100.00;99037.50;4944288;28;20499;-81
2021/10/08 05:08:49;;;;;;;58.60;31.08;;;;;;;12.52;100.00;99040.81;4942360;28;20061;-82
2021/10/08 05:11:21;;;;;;;56.22;31.10;;;;;;;12.64;100.00;99045.81;4959281;28;20094;-83
2021/10/08 05:13:48;;;;;;;57.50;30.67;;;;;;;12.76;100.00;99051.59;4974150;28;20053;-84
2021/10/08 05:16:15;;;;;;;55.03;30.92;;;;;;;12.83;100.00;99046.59;4957323;28;20462;-81
2021/10/08 05:18:42;;;;;;;61.60;32.85;;;;;;;12.70;100.00;99049.28;4973293;28;20502;-83
2021/10/08 05:21:08;;;;;;;60.55;32.80;;;;;;;12.78;100.00;99052.13;4974429;28;20042;-83
2021/10/08 05:23:35;;;;;;;60.20;32.92;;;;;;;12.88;100.00;99060.13;4956621;28;20050;-81
2021/10/08 05:26:03;;;;;;;64.32;33.03;;;;;;;12.82;100.00;99060.50;4973538;28;20054;-84
2021/10/08 05:28:30;;;;;;;59.40;32.25;;;;;;;12.85;100.00;99049.03;4956218;28;20047;-83
2021/10/08 05:30:57;;;;;;;62.03;32.45;;;;;;;12.88;100.00;99059.31;4972059;28;20193;-83
2021/10/08 05:33:24;;;;;;;63.05;33.22;;;;;;;12.86;100.00;99048.75;4956533;28;20055;-83
2021/10/08 05:35:52;;;;;;;61.17;32.08;;;;;;;12.91;100.00;99061.44;4937135;28;20053;-81
2021/10/08 05:38:20;;;;;;;59.60;32.65;;;;;;;12.93;100.00;99061.97;4936109;28;20128;-83
2021/10/08 05:40:47;;;;;;;62.10;32.97;;;;;;;12.91;100.00;99059.53;4948308;28;20249;-82
2021/10/08 05:43:15;;;;;;;60.13;32.60;;;;;;;12.89;100.00;99060.94;4971836;28;20070;-82
2021/10/08 05:45:42;;;;;;;63.22;33.47;;;;;;;12.95;100.00;99071.44;4955350;28;20055;-82
2021/10/08 05:48:09;;;;;;;63.97;33.47;;;;;;;13.01;100.00;99069.44;4947302;28;20066;-83
2021/10/08 05:50:36;;;;;;;60.05;32.13;;;;;;;12.94;100.00;99082.59;4950649;28;20105;-83
2021/10/08 05:53:05;;;;;;;65.13;34.05;;;;;;;12.97;100.00;99071.16;4951294;28;20524;-83
2021/10/08 05:55:32;;;;;;;57.15;31.77;;;;;;;13.00;100.00;99054.25;4952047;28;20065;-82
2021/10/08 05:58:00;;;;;;;64.65;34.30;;;;;;;13.11;100.00;99082.91;4934599;28;20062;-83
2021/10/08 06:00:28;;;;;;;58.50;31.80;;;;;;;13.09;100.00;99072.34;4968721;28;20042;-80
2021/10/08 06:02:55;;;;;;;63.28;33.58;;;;;;;13.02;100.00;99069.16;4935470;28;20471;-82
2021/10/08 06:05:22;;;;;;;60.50;34.47;;;;;;;13.11;100.00;99070.13;4990304;23;20062;-82
2021/10/08 06:07:49;;;;;;;66.55;34.20;;;;;;;13.22;100.00;99065.31;4996804;28;20050;-80
2021/10/08 06:10:16;;;;;;;66.03;34.05;;;;;;;13.18;100.00;99058.06;5005790;28;20058;-82
2021/10/08 06:12:43;;;;;;;61.28;34.20;;;;;;;13.16;100.00;99055.66;5015988;28;20045;-80
2021/10/08 06:15:10;;;;;;;65.90;35.08;;;;;;;13.27;100.00;99059.81;5000329;28;20060;-83
2021/10/08 06:17:37;;;;;;;66.50;36.10;;;;;;;13.36;100.00;99049.06;5003792;28;20054;-83
2021/10/08 06:20:05;;;;;;;66.07;34.22;;;;;;;13.22;100.00;99059.88;4996652;28;20511;-79
2021/10/08 06:22:35;;;;;;;64.20;34.88;;;;;;;13.25;100.00;99067.47;4993072;28;20049;-80
2021/10/08 06:25:03;;;;;;;69.00;34.92;;;;;;;13.21;100.00;99057.47;4994222;28;20056;-83
2021/10/08 06:27:30;;;;;;;62.60;34.10;;;;;;;13.33;100.00;99065.97;4978714;28;20038;-81
2021/10/08 06:29:57;;;;;;;64.93;35.78;;;;;;;13.34;100.00;99078.47;4995948;28;20050;-84
2021/10/08 06:32:24;;;;;;;63.42;34.75;;;;;;;13.44;100.00;99072.88;4999604;28;20054;-80
2021/10/08 06:34:50;;;;;;;61.97;35.95;;;;;;;13.42;100.00;99078.59;4999568;28;20046;-80
2021/10/08 06:37:17;;;;;;;65.32;35.67;;;;;;;13.38;100.00;99076.75;5003805;28;20042;-82
2021/10/08 06:39:43;;;;;;;62.10;34.63;;;;;;;13.38;100.00;99084.94;4995839;28;20053;-83
2021/10/08 06:42:10;;;;;;;72.53;37.17;;;;;;;13.40;100.00;99080.00;4996215;28;20043;-81
2021/10/08 06:44:37;;;;;;;72.10;37.72;;;;;;;13.41;100.00;99071.56;4996206;28;20038;-80
2021/10/08 06:47:03;;;;;;;82.68;38.05;;;;;;;13.21;100.00;99077.34;4994897;28;20105;-83
2021/10/08 06:49:30;;;;;;;84.40;39.05;;;;;;;13.25;100.00;99086.50;4994771;28;20122;-83
2021/10/08 06:51:56;;;;;;;80.53;39.25;;;;;;;13.28;100.00;99093.25;4995561;28;20049;-82
2021/10/08 06:54:23;;;;;;;77.10;37.95;;;;;;;13.22;100.00;99099.88;4992704;28;20038;-82
2021/10/08 06:56:49;;;;;;;80.03;38.25;;;;;;;12.98;100.00;99092.59;4993318;28;20057;-81
2021/10/08 06:59:16;;;;;;;86.10;39.80;;;;;;;12.97;100.00;99099.13;4993533;28;20050;-83
2021/10/08 07:01:42;;;;;;;84.50;39.63;;;;;;;13.09;100.00;99096.00;4992484;28;20426;-84
2021/10/08 07:04:09;;;;;;;88.32;41.03;;;;;;;13.12;100.00;99103.56;4993005;28;20069;-82
2021/10/08 07:06:35;;;;;;;91.40;41.85;;;;;;;13.01;100.00;99104.78;4992584;28;20100;-83
2021/10/08 07:09:02;;;;;;;91.00;41.65;;;;;;;13.02;100.00;99103.69;4996515;28;20053;-83
2021/10/08 07:11:29;;;;;;;85.05;40.00;;;;;;;12.86;100.00;99099.56;4980198;28;20522;-78
2021/10/08 07:13:56;;;;;;;98.15;42.63;;;;;;;12.68;100.00;99100.38;4997171;28;20050;-80
2021/10/08 07:16:25;;;;;;;98.10;44.53;;;;;;;12.84;100.00;99097.16;4997236;28;20128;-80
2021/10/08 07:18:56;;;;;;;102.57;45.22;;;;;;;12.60;100.00;99095.56;4996391;28;20105;-80
2021/10/08 07:21:24;;;;;;;100.65;44.60;;;;;;;12.96;100.00;99105.66;4996383;28;20137;-83
2021/10/08 07:23:52;;;;;;;103.65;45.58;;;;;;;12.95;100.00;99098.63;5017788;28;20034;-82
2021/10/08 07:26:21;;;;;;;113.25;46.92;;;;;;;12.64;100.00;99118.38;5013485;28;20053;-82
2021/10/08 07:28:48;;;;;;;106.85;46.38;;;;;;;12.83;100.00;99106.41;5014388;28;20715;-82
2021/10/08 07:31:14;;;;;;;116.97;47.67;;;;;;;12.81;100.00;99110.50;5027203;28;20038;-82
2021/10/08 07:33:42;;;;;;;113.47;47.95;;;;;;;12.99;100.00;99107.81;5011146;28;20046;-82
2021/10/08 07:36:09;;;;;;;98.90;46.55;;;;;;;13.09;100.00;99115.03;5010646;28;20052;-80
2021/10/08 07:38:36;;;;;;;110.70;48.30;;;;;;;13.09;100.00;99106.88;5012215;28;20425;-81
2021/10/08 07:41:02;;;;;;;103.30;46.42;;;;;;;13.15;100.00;99108.41;5011797;28;20053;-84
2021/10/08 07:43:29;;;;;;;95.82;45.03;;;;;;;13.43;100.00;99121.03;5011507;28;20045;-82
2021/10/08 07:45:55;;;;;;;97.63;46.25;;;;;;;13.78;100.00;99113.38;5042197;23;20057;-79
2021/10/08 07:48:22;;;;;;;98.60;44.05;;;;;;;13.85;100.00;99113.78;4979341;28;20110;-79
2021/10/08 07:50:49;;;;;;;96.15;44.40;;;;;;;13.69;100.00;99122.22;4981483;28;20046;-79
2021/10/08 07:53:15;;;;;;;89.28;42.88;;;;;;;14.00;100.00;99118.94;4946234;28;20047;-80
2021/10/08 07:55:42;;;;;;;95.30;43.72;;;;;;;14.17;100.00;99113.69;4936149;29;20074;-79
2021/10/08 07:58:09;;;;;;;86.10;41.50;;;;;;;14.03;100.00;99112.91;4965676;29;20043;-80
2021/10/08 08:00:36;;;;;;;80.70;39.97;;;;;;;14.46;100.00;99121.59;4929370;28;20063;-80
2021/10/08 08:03:03;;;;;;;83.43;39.42;;;;;;;14.55;100.00;99115.16;4928981;29;20058;-82
2021/10/08 08:05:30;;;;;;;77.60;38.85;;;;;;;14.55;100.00;99114.34;4926979;29;20054;-80
2021/10/08 08:07:58;;;;;;;76.35;37.78;;;;;;;14.92;100.00;99114.88;4927109;29;20047;-81
2021/10/08 08:10:25;;;;;;;69.47;37.17;;;;;;;14.95;100.00;99108.81;4943066;29;20040;-81
2021/10/08 08:12:52;;;;;;;66.07;36.08;;;;;;;14.87;100.00;99089.63;4926591;29;20057;-80
2021/10/08 08:15:19;;;;;;;66.72;34.58;;;;;;;14.87;100.00;99082.28;4927698;29;20051;-80
2021/10/08 08:17:46;;;;;;;67.78;35.45;;;;;;;15.10;100.00;99094.00;4928647;29;20142;-80
2021/10/08 08:20:14;;;;;;;65.55;34.35;;;;;;;15.02;100.00;99093.97;4960258;28;20065;-80
2021/10/08 08:22:41;;;;;;;67.97;34.25;;;;;;;14.44;100.00;99078.31;4928078;29;20051;-80
2021/10/08 08:25:08;;;;;;;63.42;33.72;;;;;;;14.79;100.00;99099.34;4962536;28;20047;-80
2021/10/08 08:27:35;;;;;;;64.63;33.67;;;;;;;14.86;100.00;99101.69;4957455;28;20051;-80
2021/10/08 08:30:05;;;;;;;70.25;35.40;;;;;;;15.09;100.00;99113.44;4957905;28;20144;-79
2021/10/08 08:32:33;;;;;;;66.82;33.28;;;;;;;14.93;100.00;99077.50;4957754;28;20048;-81
2021/10/08 08:35:01;;;;;;;62.28;33.05;;;;;;;14.86;100.00;99090.78;4958744;28;20055;-80
2021/10/08 08:37:28;;;;;;;59.85;32.72;;;;;;;14.85;100.00;99103.59;4943614;29;20115;-79
2021/10/08 08:39:55;;;;;;;60.92;32.95;;;;;;;15.01;100.00;99086.88;4960194;28;20103;-80
2021/10/08 08:42:22;;;;;;;61.00;33.15;;;;;;;14.89;100.00;99101.06;4957447;28;20055;-79
2021/10/08 08:44:49;;;;;;;65.53;32.65;;;;;;;14.58;100.00;99097.38;4927648;29;20048;-79
2021/10/08 08:47:21;;;;;;;64.45;33.83;;;;;;;15.43;100.00;99105.53;4945423;29;20055;-80
2021/10/08 08:49:48;;;;;;;64.35;32.88;;;;;;;15.90;100.00;99082.19;4959580;28;20055;-79
2021/10/08 08:52:16;;;;;;;51.90;29.52;;;;;;;15.28;100.00;99106.69;4958193;28;20080;-80
2021/10/08 08:54:49;;;;;;;55.88;28.58;;;;;;;15.82;100.00;99105.63;4960024;28;20043;-80
2021/10/08 08:57:19;;;;;;;52.47;29.90;;;;;;;15.20;100.00;99079.34;4961253;28;20539;-82
2021/10/08 09:00:01;;;;;;;54.63;29.33;;;;;;;15.17;100.00;99096.31;4958922;28;20057;-80
2021/10/08 09:02:29;;;;;;;50.88;28.60;;;;;;;15.65;100.00;99094.59;4960881;28;20163;-79
2021/10/08 09:04:56;;;;;;;51.58;26.70;;;;;;;15.64;100.00;99084.78;4961462;28;20054;-80
2021/10/08 09:07:33;;;;;;;52.75;26.38;;;;;;;15.93;100.00;99092.50;4933158;29;20047;-80
2021/10/08 09:10:11;;;;;;;53.47;24.33;;;;;;;16.15;100.00;99087.81;4967734;28;20117;-80
2021/10/08 09:12:39;;;;;;;43.80;22.92;;;;;;;15.54;100.00;99094.06;4936965;29;20055;-79
2021/10/08 09:15:08;;;;;;;44.63;22.35;;;;;;;15.73;100.00;99084.84;4937662;29;20399;-80
2021/10/08 09:17:35;;;;;;;43.17;22.20;;;;;;;15.87;100.00;99078.16;4934896;29;20066;-79
2021/10/08 09:20:08;;;;;;;43.03;23.77;;;;;;;16.32;100.00;99081.56;4936718;29;20078;-80
2021/10/08 09:22:41;;;;;;;41.30;22.67;;;;;;;17.35;100.00;99071.56;4936665;29;20043;-80
2021/10/08 09:25:15;;;;;;;38.60;21.58;;;;;;;16.97;100.00;99070.63;4952378;29;20491;-81
2021/10/08 09:27:44;;;;;;;40.53;21.55;;;;;;;17.03;100.00;99077.56;4934581;29;20511;-81
2021/10/08 09:30:12;;;;;;;47.60;23.35;;;;;;;17.63;100.00;99068.47;4935785;29;20071;-79
2021/10/08 09:32:44;;;;;;;40.70;20.52;;;;;;;18.03;100.00;99062.41;4932190;29;20048;-80
2021/10/08 09:35:14;;;;;;;41.97;21.48;;;;;;;19.11;100.00;99066.28;4929017;29;20047;-80
2021/10/08 09:37:46;;;;;;;39.80;17.30;;;;;;;18.39;86.57;99066.59;4930273;29;20055;-80
2021/10/08 09:40:28;;;;;;;31.45;17.17;;;;;;;18.61;86.73;99075.34;4930347;29;20607;-79
2021/10/08 09:42:57;;;;;;;28.63;15.38;;;;;;;19.28;76.97;99080.66;4943409;29;20051;-79
2021/10/08 09:45:38;;;;;;;32.42;16.02;;;;;;;19.30;72.27;99074.84;4947108;29;20480;-80
2021/10/08 09:48:07;;;;;;;34.35;16.40;;;;;;;18.94;72.56;99080.16;4943512;29;20051;-78
2021/10/08 09:50:35;;;;;;;28.52;15.38;;;;;;;19.64;69.63;99069.03;4937967;29;20055;-80
2021/10/08 09:53:14;;;;;;;30.95;16.65;;;;;;;19.72;70.51;99076.38;4921987;29;20043;-78
2021/10/08 09:55:44;;;;;;;33.05;17.42;;;;;;;20.58;65.85;99066.28;4941724;29;20043;-79
2021/10/08 09:58:14;;;;;;;28.67;16.40;;;;;;;21.14;60.44;99073.53;4959994;28;20101;-80
2021/10/08 10:00:57;;;;;;;30.63;16.02;;;;;;;21.70;58.33;99074.34;4963269;28;20043;-79
2021/10/08 10:03:30;;;;;;;29.55;15.57;;;;;;;22.02;55.08;99067.75;4983011;28;20035;-78
2021/10/08 10:06:04;;;;;;;29.23;16.70;;;;;;;20.12;57.68;99071.09;4947391;28;20046;-79
2021/10/08 10:08:36;;;;;;;33.70;17.67;;;;;;;19.40;59.59;99065.41;4967470;28;20077;-80
2021/10/08 10:11:03;;;;;;;38.60;16.98;;;;;;;19.10;65.72;99065.47;4965346;28;20043;-80
2021/10/08 10:13:31;;;;;;;39.35;17.10;;;;;;;20.40;60.02;99058.28;4958359;28;20043;-80
2021/10/08 10:15:59;;;;;;;31.77;17.33;;;;;;;21.91;55.60;99058.38;4923580;28;20416;-79
2021/10/08 10:18:26;;;;;;;34.58;18.45;;;;;;;21.56;58.11;99060.97;4918110;29;20047;-78
2021/10/08 10:20:53;;;;;;;37.10;19.00;;;;;;;19.11;66.87;99072.59;4944765;29;20047;-79
2021/10/08 10:23:24;;;;;;;36.25;19.88;;;;;;;19.78;67.55;99068.72;4932137;29;20147;-80
2021/10/08 10:25:51;;;;;;;36.05;18.30;;;;;;;19.27;71.33;99081.00;4943190;29;20051;-78
2021/10/08 10:28:19;;;;;;;30.80;17.25;;;;;;;18.35;71.20;99076.63;4925475;28;20051;-80
2021/10/08 10:30:49;;;;;;;35.63;17.73;;;;;;;20.58;68.05;99067.09;4951230;28;20078;-80
2021/10/08 10:33:22;;;;;;;35.33;17.30;;;;;;;23.42;51.78;99058.38;4939257;28;20625;-79
2021/10/08 10:35:51;;;;;;;29.25;17.17;;;;;;;22.50;52.60;99057.50;4962890;28;20051;-80
2021/10/08 10:38:27;;;;;;;31.85;18.30;;;;;;;24.25;48.91;99059.53;4946666;28;20561;-80
2021/10/08 10:41:09;;;;;;;34.60;18.15;;;;;;;22.37;52.13;99067.03;4951941;29;20054;-81
2021/10/08 10:43:39;;;;;;;37.28;18.73;;;;;;;18.31;78.50;99071.00;4939709;29;20463;-80
2021/10/08 10:46:35;;;;;;;35.85;18.48;;;;;;;22.12;58.25;99064.44;4944445;28;20145;-80
2021/10/08 10:51:56;;;;;;;35.90;16.65;;;;;;;24.28;48.29;99071.84;4927234;29;20162;-81
2021/10/08 10:54:51;;;;;;;32.25;16.40;;;;;;;24.65;44.74;99057.00;4925494;29;20460;-80
2021/10/08 10:57:18;;;;;;;37.50;16.42;;;;;;;22.15;50.42;99074.78;4945586;28;20082;-79
2021/10/08 10:59:46;;;;;;;29.15;15.63;;;;;;;25.10;44.54;99069.94;4976949;28;20082;-81
2021/10/08 11:02:15;;;;;;;32.30;16.00;;;;;;;24.15;45.43;99071.22;4927308;29;20080;-79
2021/10/08 11:04:54;;;;;;;31.30;15.43;;;;;;;22.39;48.27;99065.53;4943546;29;20051;-80
2021/10/08 11:07:23;;;;;;;31.05;15.07;;;;;;;22.56;45.30;99064.31;4928075;29;20453;-79
2021/10/08 11:09:56;;;;;;;36.30;15.27;;;;;;;23.45;46.45;99056.84;4932364;28;20071;-79
2021/10/08 11:12:39;;;;;;;33.40;15.27;;;;;;;23.99;44.91;99067.75;4955207;28;20102;-78
2021/10/08 11:15:18;;;;;;;30.33;13.75;;;;;;;26.21;41.36;99061.69;4926681;29;20059;-79
2021/10/08 11:17:54;;;;;;;23.30;12.98;;;;;;;25.57;41.68;99044.41;4941891;29;20051;-80
2021/10/08 11:20:30;;;;;;;26.55;13.35;;;;;;;26.84;39.96;99050.28;4927018;29;20058;-79